createdAt,value
2023-04-14T00:01:17.526Z,78.89
2023-04-14T00:03:45.802Z,78.81
2023-04-14T00:06:13.847Z,78.77
2023-04-14T00:08:41.718Z,78.78
2023-04-14T00:11:09.696Z,79.01
2023-04-14T00:13:38.082Z,79.05
2023-04-14T00:16:07.147Z,79.03
2023-04-14T00:18:34.853Z,79.07
2023-04-14T00:21:02.849Z,78.88
2023-04-14T00:23:30.716Z,79.08
2023-04-14T00:25:58.548Z,79.27
2023-04-14T00:28:26.447Z,79.39
2023-04-14T00:30:54.255Z,79.42
2023-04-14T00:33:22.120Z,79.49
2023-04-14T00:35:49.901Z,79.48
2023-04-14T00:38:17.769Z,79.78
2023-04-14T00:40:45.643Z,79.90
2023-04-14T00:43:13.468Z,80.13
2023-04-14T00:45:46.284Z,80.20
2023-04-14T00:48:15.824Z,80.36
2023-04-14T00:50:44.152Z,80.40
2023-04-14T00:53:13.181Z,80.44
2023-04-14T00:55:41.806Z,80.61
2023-04-14T00:58:10.552Z,80.96
2023-04-14T01:00:38.549Z,80.85
2023-04-14T01:03:07.246Z,81.02
2023-04-14T01:05:35.449Z,81.16
2023-04-14T01:08:04.350Z,81.18
2023-04-14T01:10:41.201Z,81.51
2023-04-14T01:13:20.996Z,81.48
2023-04-14T01:15:56.538Z,81.66
2023-04-14T01:18:53.378Z,81.73
2023-04-14T01:21:26.336Z,81.76
2023-04-14T01:24:15.761Z,81.85
2023-04-14T01:26:45.544Z,82.02
2023-04-14T01:29:58.183Z,82.27
2023-04-14T01:32:29.325Z,82.32
2023-04-14T01:35:03.275Z,82.24
2023-04-14T01:37:35.649Z,82.50
2023-04-14T01:40:11.385Z,82.44
2023-04-14T01:42:46.488Z,82.71
2023-04-14T01:45:23.794Z,82.81
2023-04-14T01:47:52.584Z,82.98
2023-04-14T01:50:22.551Z,83.05
2023-04-14T01:52:54.287Z,83.36
2023-04-14T01:55:25.658Z,83.25
2023-04-14T01:57:57.606Z,83.34
2023-04-14T02:00:26.624Z,83.38
2023-04-14T02:02:55.076Z,83.43
2023-04-14T02:05:24.539Z,83.57
2023-04-14T02:07:55.011Z,83.62
2023-04-14T02:10:24.461Z,83.80
2023-04-14T02:12:57.082Z,83.81
2023-04-14T02:15:28.672Z,83.71
2023-04-14T02:17:58.342Z,83.64
2023-04-14T02:20:28.473Z,83.83
2023-04-14T02:22:56.798Z,83.71
2023-04-14T02:25:29.930Z,83.83
2023-04-14T02:28:02.864Z,84.08
2023-04-14T02:30:35.363Z,84.25
2023-04-14T02:33:07.349Z,84.36
2023-04-14T02:35:46.331Z,84.40
2023-04-14T02:38:22.268Z,84.41
2023-04-14T02:40:50.879Z,84.61
2023-04-14T02:43:24.952Z,84.53
2023-04-14T02:45:56.218Z,84.62
2023-04-14T02:48:28.159Z,84.65
2023-04-14T02:50:59.422Z,84.72
2023-04-14T02:53:28.732Z,84.77
2023-04-14T02:56:07.452Z,85.11
2023-04-14T02:58:38.273Z,85.26
2023-04-14T03:01:07.098Z,85.23
2023-04-14T03:03:37.689Z,85.40
2023-04-14T03:06:07.302Z,85.59
2023-04-14T03:08:37.450Z,85.46
2023-04-14T03:11:06.835Z,85.82
2023-04-14T03:13:35.650Z,85.88
2023-04-14T03:16:04.911Z,85.84
2023-04-14T03:18:35.377Z,86.00
2023-04-14T03:21:05.174Z,86.22
2023-04-14T03:23:36.222Z,86.33
2023-04-14T03:26:07.815Z,86.54
2023-04-14T03:28:39.603Z,86.56
2023-04-14T03:31:11.323Z,86.39
2023-04-14T03:33:55.706Z,86.51
2023-04-14T03:36:26.395Z,86.55
2023-04-14T03:38:59.902Z,86.47
2023-04-14T03:41:30.973Z,86.43
2023-04-14T03:43:59.967Z,86.31
2023-04-14T03:46:29.271Z,86.18
2023-04-14T03:48:59.776Z,86.23
2023-04-14T03:51:32.011Z,86.23
2023-04-14T03:54:02.570Z,86.34
2023-04-14T03:56:33.398Z,86.37
2023-04-14T03:59:02.919Z,86.73
2023-04-14T04:01:33.198Z,86.63
2023-04-14T04:04:03.258Z,86.65
2023-04-14T04:06:33.540Z,87.08
2023-04-14T04:09:02.797Z,87.12
2023-04-14T04:11:34.850Z,87.15
2023-04-14T04:14:07.166Z,87.04
2023-04-14T04:16:38.530Z,87.37
2023-04-14T04:19:08.244Z,87.51
2023-04-14T04:21:41.737Z,87.55
2023-04-14T04:24:14.791Z,87.60
2023-04-14T04:26:46.728Z,87.52
2023-04-14T04:29:17.708Z,88.06
2023-04-14T04:31:49.813Z,88.06
2023-04-14T04:34:23.766Z,88.63
2023-04-14T04:36:55.736Z,88.95
2023-04-14T04:39:25.761Z,89.40
2023-04-14T04:42:05.749Z,89.17
2023-04-14T04:44:37.741Z,89.27
2023-04-14T04:47:09.808Z,89.36
2023-04-14T04:49:41.780Z,89.38
2023-04-14T04:52:12.272Z,89.26
2023-04-14T04:54:44.755Z,89.32
2023-04-14T04:57:15.751Z,89.20
2023-04-14T04:59:47.741Z,89.23
2023-04-14T05:02:19.951Z,89.19
2023-04-14T05:04:50.902Z,88.82
2023-04-14T05:07:22.834Z,88.77
2023-04-14T05:09:54.808Z,88.91
2023-04-14T05:12:26.827Z,88.61
2023-04-14T05:14:58.772Z,88.42
2023-04-14T05:17:29.904Z,88.22
2023-04-14T05:20:00.822Z,87.81
2023-04-14T05:30:04.816Z,87.39
2023-04-14T05:32:32.655Z,87.41
2023-04-14T05:35:00.642Z,86.89
2023-04-14T05:37:30.222Z,86.52
2023-04-14T05:39:58.688Z,86.70
2023-04-14T05:42:26.636Z,86.64
2023-04-14T05:44:54.366Z,86.58
2023-04-14T05:47:22.249Z,86.33
2023-04-14T05:49:50.003Z,85.97
2023-04-14T05:52:18.825Z,86.00
2023-04-14T05:54:46.589Z,85.80
2023-04-14T05:57:14.342Z,85.97
2023-04-14T05:59:42.151Z,85.68
2023-04-14T06:02:10.071Z,85.05
2023-04-14T06:04:38.136Z,84.49
2023-04-14T06:07:05.996Z,84.55
2023-04-14T06:09:33.721Z,84.61
2023-04-14T06:12:01.836Z,84.39
2023-04-14T06:14:29.719Z,83.89
2023-04-14T06:16:57.932Z,83.50
2023-04-14T06:19:26.145Z,83.15
2023-04-14T06:21:53.959Z,82.47
2023-04-14T06:24:21.819Z,83.20
2023-04-14T06:26:49.748Z,82.75
2023-04-14T06:29:18.415Z,82.16
2023-04-14T06:31:47.149Z,82.09
2023-04-14T06:34:14.986Z,82.08
2023-04-14T06:36:42.738Z,81.34
2023-04-14T06:39:12.796Z,80.37
2023-04-14T06:41:40.824Z,80.55
2023-04-14T06:44:09.291Z,80.62
2023-04-14T06:46:37.109Z,81.16
2023-04-14T06:49:05.542Z,80.78
2023-04-14T06:51:34.279Z,80.27
2023-04-14T06:54:02.798Z,79.75
2023-04-14T06:56:30.968Z,79.38
2023-04-14T06:58:58.684Z,78.66
2023-04-14T07:01:26.456Z,78.69
2023-04-14T07:03:54.434Z,78.45
2023-04-14T07:06:22.239Z,78.50
2023-04-14T07:08:49.986Z,78.22
2023-04-14T07:11:17.807Z,77.97
2023-04-14T07:13:45.631Z,77.72
2023-04-14T07:16:13.510Z,78.09
2023-04-14T07:18:41.400Z,78.20
2023-04-14T07:21:09.208Z,78.25
2023-04-14T07:23:37.666Z,78.22
2023-04-14T07:26:06.187Z,78.42
2023-04-14T07:28:34.225Z,78.75
2023-04-14T07:31:09.140Z,78.53
2023-04-14T07:33:37.258Z,78.95
2023-04-14T07:36:05.301Z,78.96
2023-04-14T07:38:33.321Z,78.75
2023-04-14T07:41:06.469Z,78.40
2023-04-14T07:43:37.691Z,78.42
2023-04-14T07:46:07.778Z,78.30
2023-04-14T07:48:37.687Z,78.31
2023-04-14T07:51:07.097Z,77.99
2023-04-14T07:53:35.153Z,77.92
2023-04-14T07:56:03.324Z,77.82
2023-04-14T07:58:31.117Z,77.97
2023-04-14T08:00:58.841Z,77.68
2023-04-14T08:03:27.239Z,77.29
2023-04-14T08:05:55.722Z,77.35
2023-04-14T08:08:24.673Z,77.19
2023-04-14T08:10:52.578Z,76.95
2023-04-14T08:13:20.413Z,76.67
2023-04-14T08:15:48.986Z,76.46
2023-04-14T08:18:17.200Z,76.16
2023-04-14T08:20:45.230Z,75.88
2023-04-14T08:23:13.178Z,75.38
2023-04-14T08:25:42.342Z,75.31
2023-04-14T08:28:10.444Z,75.24
2023-04-14T08:30:38.490Z,74.73
2023-04-14T08:33:06.343Z,74.45
2023-04-14T08:35:42.162Z,74.06
2023-04-14T08:38:11.270Z,73.90
2023-04-14T08:40:41.849Z,74.04
2023-04-14T08:43:13.158Z,73.72
2023-04-14T08:45:44.603Z,73.48
2023-04-14T08:48:16.941Z,72.81
2023-04-14T08:50:56.327Z,72.81
2023-04-14T08:53:26.580Z,72.74
2023-04-14T08:55:58.007Z,72.86
2023-04-14T08:58:26.677Z,72.87
2023-04-14T09:00:55.938Z,72.50
2023-04-14T09:03:25.205Z,72.24
2023-04-14T09:05:53.611Z,71.49
2023-04-14T09:08:21.854Z,71.42
2023-04-14T09:10:50.951Z,71.51
2023-04-14T09:13:21.760Z,71.37
2023-04-14T09:15:50.171Z,71.53
2023-04-14T09:18:18.096Z,71.60
2023-04-14T09:20:48.128Z,71.49
2023-04-14T09:23:37.451Z,70.56
2023-04-14T09:26:09.313Z,70.12
2023-04-14T09:28:37.965Z,70.07
2023-04-14T09:31:06.483Z,69.49
2023-04-14T09:33:39.907Z,69.84
2023-04-14T09:36:18.554Z,69.37
2023-04-14T09:38:47.318Z,69.10
2023-04-14T09:41:20.217Z,68.86
2023-04-14T09:43:49.295Z,68.00
2023-04-14T09:51:11.640Z,67.60
2023-04-14T09:53:41.269Z,67.17
2023-04-14T09:56:11.713Z,66.94
2023-04-14T09:58:42.235Z,66.95
2023-04-14T10:01:15.823Z,66.74
2023-04-14T10:03:46.452Z,65.61
2023-04-14T10:06:20.738Z,65.12
2023-04-14T10:08:50.519Z,64.76
2023-04-14T10:11:23.152Z,64.80
2023-04-14T10:13:54.280Z,64.93
2023-04-14T10:16:23.357Z,64.77
2023-04-14T10:18:53.298Z,64.63
2023-04-14T10:21:23.189Z,64.69
2023-04-14T10:23:52.110Z,64.52
2023-04-14T10:26:19.999Z,64.28
2023-04-14T10:28:51.064Z,63.93
2023-04-14T10:31:24.000Z,63.99
2023-04-14T10:33:52.682Z,64.38
2023-04-14T10:36:29.252Z,64.20
2023-04-14T10:39:03.349Z,63.50
2023-04-14T10:41:43.898Z,62.87
2023-04-14T10:44:35.620Z,62.25
2023-04-14T10:47:09.702Z,62.54
2023-04-14T10:49:39.537Z,62.57
2023-04-14T10:52:17.022Z,62.08
2023-04-14T10:55:02.760Z,61.69
2023-04-14T10:57:30.594Z,61.44
2023-04-14T11:00:00.042Z,61.44
2023-04-14T11:02:33.511Z,61.97
2023-04-14T11:05:11.037Z,61.97
2023-04-14T11:07:45.826Z,61.53
2023-04-14T11:10:16.730Z,61.22
2023-04-14T11:12:46.194Z,61.58
2023-04-14T11:15:15.739Z,61.60
2023-04-14T11:17:43.940Z,61.03
2023-04-14T11:20:16.915Z,60.61
2023-04-14T11:22:47.030Z,60.85
2023-04-14T11:25:16.963Z,60.63
2023-04-14T11:27:47.217Z,60.86
2023-04-14T11:30:17.655Z,60.38
2023-04-14T11:32:48.099Z,60.35
2023-04-14T11:35:16.678Z,60.17
2023-04-14T11:37:46.178Z,60.54
2023-04-14T11:40:15.987Z,60.32
2023-04-14T11:42:52.164Z,60.22
2023-04-14T11:45:20.954Z,60.16
2023-04-14T11:47:59.234Z,60.25
2023-04-14T11:50:30.688Z,60.14
2023-04-14T11:53:03.172Z,59.87
2023-04-14T11:55:31.461Z,59.57
2023-04-14T11:57:59.422Z,59.70
2023-04-14T12:00:28.130Z,59.29
2023-04-14T12:02:57.061Z,59.20
2023-04-14T12:05:30.508Z,59.48
2023-04-14T12:08:00.468Z,59.62
2023-04-14T12:10:28.820Z,58.98
2023-04-14T12:13:08.827Z,58.84
2023-04-14T12:15:40.802Z,58.21
2023-04-14T12:18:11.742Z,57.61
2023-04-14T12:20:47.374Z,57.58
2023-04-14T12:23:16.176Z,57.04
2023-04-14T12:25:44.177Z,56.68
2023-04-14T12:28:25.362Z,57.07
2023-04-14T12:30:56.685Z,57.49
2023-04-14T12:33:27.890Z,57.68
2023-04-14T12:36:12.560Z,57.30
2023-04-14T12:38:40.488Z,56.70
2023-04-14T12:41:08.607Z,56.33
2023-04-14T12:43:38.887Z,56.33
2023-04-14T12:46:09.999Z,56.36
2023-04-14T12:48:40.298Z,56.28
2023-04-14T12:51:13.825Z,55.60
2023-04-14T12:53:44.253Z,55.98
2023-04-14T12:56:16.114Z,56.00
2023-04-14T12:58:48.738Z,55.61
2023-04-14T13:01:19.071Z,56.03
2023-04-14T13:03:52.039Z,55.69
2023-04-14T13:06:22.979Z,55.83
2023-04-14T13:08:56.516Z,56.00
2023-04-14T13:11:24.829Z,55.85
2023-04-14T13:13:53.896Z,56.25
2023-04-14T13:16:22.673Z,56.65
2023-04-14T13:18:54.112Z,56.70
2023-04-14T13:21:21.957Z,56.38
2023-04-14T13:23:49.875Z,56.28
2023-04-14T13:26:17.693Z,56.15
2023-04-14T13:28:46.103Z,56.30
2023-04-14T13:31:17.753Z,56.20
2023-04-14T13:33:45.917Z,55.48
2023-04-14T13:36:14.097Z,55.28
2023-04-14T13:38:42.170Z,55.35
2023-04-14T13:41:10.105Z,55.00
2023-04-14T13:43:38.016Z,54.83
2023-04-14T13:46:05.862Z,54.55
2023-04-14T13:48:33.772Z,54.86
2023-04-14T13:51:02.047Z,55.00
2023-04-14T13:53:29.841Z,55.07
2023-04-14T13:55:57.666Z,54.95
2023-04-14T13:58:26.381Z,55.33
2023-04-14T14:00:55.446Z,55.12
2023-04-14T14:03:25.326Z,54.87
2023-04-14T14:05:53.439Z,55.11
2023-04-14T14:08:21.392Z,55.17
2023-04-14T14:10:49.357Z,55.31
2023-04-14T14:13:18.553Z,54.64
2023-04-14T14:15:47.870Z,54.53
2023-04-14T14:18:16.682Z,54.29
2023-04-14T14:20:44.707Z,53.75
2023-04-14T14:23:13.067Z,53.45
2023-04-14T14:25:42.416Z,54.31
2023-04-14T14:28:11.154Z,54.75
2023-04-14T14:30:39.273Z,54.98
2023-04-14T14:33:07.637Z,54.83
2023-04-14T14:35:35.544Z,54.80
2023-04-14T14:38:03.378Z,55.31
2023-04-14T14:40:31.630Z,55.36
2023-04-14T14:43:00.127Z,55.21
2023-04-14T14:45:31.008Z,54.80
2023-04-14T14:47:59.588Z,54.51
2023-04-14T14:50:27.432Z,54.46
2023-04-14T14:52:56.993Z,54.63
2023-04-14T14:55:25.134Z,54.88
2023-04-14T14:57:53.127Z,54.64
2023-04-14T15:00:21.195Z,54.78
2023-04-14T15:02:49.165Z,54.92
2023-04-14T15:05:17.333Z,54.53
2023-04-14T15:07:45.325Z,54.54
2023-04-14T15:10:14.707Z,54.48
2023-04-14T15:12:42.552Z,53.99
2023-04-14T15:15:11.098Z,54.21
2023-04-14T15:17:39.090Z,54.56
2023-04-14T15:20:08.447Z,54.44
2023-04-14T15:22:36.577Z,54.26
2023-04-14T15:25:05.200Z,54.34
2023-04-14T15:27:33.053Z,54.30
2023-04-14T15:30:01.088Z,54.40
2023-04-14T15:32:29.088Z,54.57
2023-04-14T15:34:57.374Z,54.39
2023-04-14T15:37:26.529Z,54.42
2023-04-14T15:39:55.486Z,54.50
2023-04-14T15:42:23.446Z,54.61
2023-04-14T15:44:51.552Z,54.84
2023-04-14T15:47:19.602Z,54.94
2023-04-14T15:49:49.880Z,55.13
2023-04-14T15:52:21.027Z,55.51
2023-04-14T15:54:48.777Z,55.67
2023-04-14T15:57:16.908Z,55.43
2023-04-14T15:59:44.689Z,55.54
2023-04-14T16:02:12.567Z,55.70
2023-04-14T16:04:40.670Z,55.77
2023-04-14T16:07:08.862Z,55.97
2023-04-14T16:09:36.873Z,56.04
2023-04-14T16:12:04.693Z,56.29
2023-04-14T16:14:33.804Z,56.69
2023-04-14T16:17:02.193Z,56.78
2023-04-14T16:19:30.141Z,57.03
2023-04-14T16:21:58.059Z,57.06
2023-04-14T16:24:25.991Z,57.34
2023-04-14T16:26:53.863Z,57.64
2023-04-14T16:29:22.347Z,57.56
2023-04-14T16:31:50.326Z,57.72
2023-04-14T16:34:20.558Z,58.02
2023-04-14T16:36:48.401Z,58.03
2023-04-14T16:39:16.283Z,58.06
2023-04-14T16:41:45.820Z,58.27
2023-04-14T16:44:13.940Z,58.62
2023-04-14T16:46:41.875Z,58.89
2023-04-14T16:49:10.199Z,59.04
2023-04-14T16:51:38.574Z,59.23
2023-04-14T16:54:06.487Z,59.49
2023-04-14T16:56:36.793Z,59.72
2023-04-14T16:59:07.269Z,59.87
2023-04-14T17:01:35.263Z,60.09
2023-04-14T17:04:04.187Z,60.41
2023-04-14T17:06:32.592Z,60.58
2023-04-14T17:09:00.966Z,60.74
2023-04-14T17:11:28.853Z,61.08
2023-04-14T17:13:56.687Z,61.15
2023-04-14T17:16:24.738Z,61.33
2023-04-14T17:18:53.562Z,61.68
2023-04-14T17:21:21.387Z,61.99
2023-04-14T17:23:49.339Z,62.13
2023-04-14T17:26:17.140Z,62.42
2023-04-14T17:28:45.989Z,62.67
2023-04-14T17:31:14.592Z,62.77
2023-04-14T17:33:47.234Z,62.88
2023-04-14T17:36:16.693Z,62.83
2023-04-14T17:38:48.172Z,63.00
2023-04-14T17:41:16.009Z,63.00
2023-04-14T17:43:43.901Z,63.43
2023-04-14T17:46:12.128Z,63.25
2023-04-14T17:48:40.478Z,63.47
2023-04-14T17:51:08.435Z,63.60
2023-04-14T17:53:36.695Z,63.74
2023-04-14T17:56:06.056Z,63.88
2023-04-14T17:58:33.879Z,63.83
2023-04-14T18:01:01.666Z,64.03
2023-04-14T18:03:29.761Z,64.38
2023-04-14T18:05:57.621Z,64.49
2023-04-14T18:08:26.067Z,64.32
2023-04-14T18:10:54.246Z,64.73
2023-04-14T18:13:22.201Z,64.88
2023-04-14T18:15:50.051Z,64.96
2023-04-14T18:18:17.906Z,65.05
2023-04-14T18:20:49.076Z,65.22
2023-04-14T18:23:17.639Z,65.24
2023-04-14T18:28:16.669Z,65.73
2023-04-14T18:30:51.930Z,65.75
2023-04-14T18:33:19.739Z,65.86
2023-04-14T18:35:55.327Z,66.06
2023-04-14T18:38:24.833Z,66.19
2023-04-14T18:40:53.298Z,66.25
2023-04-14T18:43:21.296Z,66.30
2023-04-14T18:45:50.274Z,66.52
2023-04-14T18:48:18.182Z,66.73
2023-04-14T18:50:46.752Z,66.74
2023-04-14T18:53:14.936Z,66.92
2023-04-14T18:55:45.111Z,67.17
2023-04-14T18:58:13.908Z,67.20
2023-04-14T19:00:45.252Z,67.12
2023-04-14T19:03:13.655Z,67.16
2023-04-14T19:05:41.734Z,67.41
2023-04-14T19:08:09.639Z,67.60
2023-04-14T19:10:37.768Z,67.39
2023-04-14T19:13:05.927Z,67.31
2023-04-14T19:15:33.971Z,67.31
2023-04-14T19:18:03.712Z,67.40
2023-04-14T19:20:32.152Z,67.57
2023-04-14T19:23:00.443Z,67.40
2023-04-14T19:25:29.543Z,67.52
2023-04-14T19:27:58.627Z,67.88
2023-04-14T19:30:26.433Z,67.88
2023-04-14T19:32:54.666Z,67.90
2023-04-14T19:35:26.641Z,68.02
2023-04-14T19:37:57.097Z,68.09
2023-04-14T19:40:25.540Z,67.99
2023-04-14T19:42:55.360Z,68.06
2023-04-14T19:45:23.559Z,68.30
2023-04-14T19:47:52.026Z,68.13
2023-04-14T19:50:22.754Z,68.27
2023-04-14T19:52:52.164Z,68.47
2023-04-14T19:55:20.124Z,68.40
2023-04-14T19:57:48.384Z,68.72
2023-04-14T20:00:16.980Z,68.72
2023-04-14T20:02:45.232Z,69.14
2023-04-14T20:05:13.422Z,69.07
2023-04-14T20:07:41.490Z,69.10
2023-04-14T20:10:10.272Z,69.05
2023-04-14T20:12:38.334Z,68.86
2023-04-14T20:15:07.312Z,68.74
2023-04-14T20:17:35.224Z,68.85
2023-04-14T20:20:06.064Z,68.77
2023-04-14T20:22:34.360Z,69.08
2023-04-14T20:25:02.499Z,69.08
2023-04-14T20:27:31.708Z,68.95
2023-04-14T20:29:59.730Z,68.92
2023-04-14T20:32:27.582Z,68.84
2023-04-14T20:34:55.599Z,69.09
2023-04-14T20:37:23.879Z,68.75
2023-04-14T20:39:53.307Z,69.13
2023-04-14T20:42:21.292Z,69.32
2023-04-14T20:44:49.268Z,69.41
2023-04-14T20:47:17.421Z,69.39
2023-04-14T20:49:45.444Z,69.40
2023-04-14T20:52:13.208Z,69.56
2023-04-14T20:54:41.097Z,69.65
2023-04-14T20:57:09.960Z,69.64
2023-04-14T20:59:37.870Z,69.88
2023-04-14T21:02:06.584Z,69.89
2023-04-14T21:04:36.102Z,69.90
2023-04-14T21:07:04.867Z,70.19
2023-04-14T21:09:32.690Z,70.16
2023-04-14T21:12:14.293Z,70.08
2023-04-14T21:15:44.577Z,70.28
2023-04-14T21:17:36.635Z,70.34
2023-04-14T21:20:06.018Z,70.43
2023-04-14T21:22:35.302Z,70.43
2023-04-14T21:25:03.507Z,70.38
2023-04-14T21:27:31.481Z,70.17
2023-04-14T21:29:59.556Z,70.32
2023-04-14T21:32:27.489Z,70.41
2023-04-14T21:34:55.721Z,70.58
2023-04-14T21:37:24.177Z,70.58
2023-04-14T21:39:52.093Z,70.61
2023-04-14T21:42:19.933Z,70.53
2023-04-14T21:44:49.424Z,70.53
2023-04-14T21:47:17.929Z,70.70
2023-04-14T21:49:46.149Z,70.83
2023-04-14T21:52:13.994Z,70.55
2023-04-14T21:54:44.410Z,70.80
2023-04-14T21:57:12.449Z,70.52
2023-04-14T21:59:40.254Z,70.63
2023-04-14T22:02:08.073Z,70.72
2023-04-14T22:04:37.469Z,70.72
2023-04-14T22:07:06.608Z,71.12
2023-04-14T22:09:34.636Z,71.02
2023-04-14T22:12:03.456Z,71.05
2023-04-14T22:14:31.430Z,70.94
2023-04-14T22:17:00.935Z,71.02
2023-04-14T22:19:29.171Z,70.87
2023-04-14T22:21:57.060Z,71.06
2023-04-14T22:24:25.406Z,71.09
2023-04-14T22:26:54.193Z,70.91
2023-04-14T22:29:22.021Z,71.01
2023-04-14T22:31:49.931Z,71.24
2023-04-14T22:34:17.890Z,71.11
2023-04-14T22:36:45.801Z,71.15
2023-04-14T22:39:14.279Z,71.15
2023-04-14T22:41:42.314Z,71.12
2023-04-14T22:44:10.160Z,71.20
2023-04-14T22:46:38.072Z,71.39
2023-04-14T22:49:06.386Z,71.12
2023-04-14T22:51:34.353Z,71.23
2023-04-14T22:54:03.823Z,71.35
2023-04-14T22:56:31.762Z,71.22
2023-04-14T22:58:59.911Z,71.31
2023-04-14T23:01:29.612Z,71.45
2023-04-14T23:03:57.665Z,71.11
2023-04-14T23:06:25.941Z,71.42
2023-04-14T23:08:53.854Z,71.48
2023-04-14T23:11:22.118Z,71.35
2023-04-14T23:13:50.429Z,71.41
2023-04-14T23:16:21.893Z,71.39
2023-04-14T23:18:52.347Z,71.58
2023-04-14T23:21:22.377Z,71.75
2023-04-14T23:23:51.917Z,71.65
2023-04-14T23:26:21.914Z,71.60
2023-04-14T23:28:49.836Z,71.66
2023-04-14T23:31:18.211Z,71.71
2023-04-14T23:33:48.778Z,71.84
2023-04-14T23:36:17.514Z,71.98
2023-04-14T23:38:45.576Z,71.96
2023-04-14T23:41:13.513Z,72.18
2023-04-14T23:43:41.519Z,72.37
2023-04-14T23:46:09.671Z,72.15
2023-04-14T23:48:38.101Z,72.54
2023-04-14T23:51:16.265Z,72.25
2023-04-14T23:53:46.173Z,72.59
2023-04-14T23:56:13.989Z,72.63
2023-04-14T23:58:44.021Z,72.73
